createdAt,value
2019-04-16T00:01:38.554Z,5.27
2019-04-16T00:04:32.121Z,4.20
2019-04-16T00:07:09.037Z,4.93
2019-04-16T00:10:03.494Z,4.00
2019-04-16T00:12:49.656Z,5.60
2019-04-16T00:15:25.033Z,4.97
2019-04-16T00:18:00.373Z,4.50
2019-04-16T00:20:38.124Z,5.70
2019-04-16T00:23:32.393Z,4.73
2019-04-16T00:26:08.585Z,5.47
2019-04-16T00:28:43.873Z,5.50
2019-04-16T00:31:19.224Z,5.07
2019-04-16T00:33:54.652Z,5.20
2019-04-16T00:36:29.670Z,4.87
2019-04-16T00:39:06.335Z,4.43
2019-04-16T00:41:42.625Z,4.83
2019-04-16T00:44:18.626Z,4.50
2019-04-16T00:46:59.135Z,5.63
2019-04-16T00:49:37.672Z,6.37
2019-04-16T00:52:11.206Z,3.23
2019-04-16T00:54:46.227Z,4.80
2019-04-16T00:57:21.234Z,4.70
2019-04-16T00:59:56.790Z,5.07
2019-04-16T01:02:32.060Z,4.10
2019-04-16T01:05:07.571Z,5.03
2019-04-16T01:07:42.594Z,5.77
2019-04-16T01:10:17.624Z,4.93
2019-04-16T01:12:52.643Z,5.10
2019-04-16T01:15:29.175Z,4.87
2019-04-16T01:18:07.252Z,6.50
2019-04-16T01:20:43.273Z,4.93
2019-04-16T01:23:18.547Z,5.53
2019-04-16T01:25:55.581Z,5.80
2019-04-16T01:28:32.690Z,5.33
2019-04-16T01:31:09.516Z,6.00
2019-04-16T01:34:02.818Z,6.27
2019-04-16T01:36:39.431Z,6.40
2019-04-16T01:39:18.337Z,6.33
2019-04-16T01:41:53.459Z,6.00
2019-04-16T01:44:29.652Z,6.53
2019-04-16T01:47:05.310Z,6.57
2019-04-16T01:49:42.054Z,5.67
2019-04-16T01:52:19.096Z,6.17
2019-04-16T01:54:55.574Z,5.03
2019-04-16T01:57:31.361Z,5.73
2019-04-16T02:00:08.740Z,5.33
2019-04-16T02:02:46.385Z,6.30
2019-04-16T02:05:23.233Z,5.37
2019-04-16T02:07:59.267Z,5.40
2019-04-16T02:10:38.492Z,4.80
2019-04-16T02:13:15.000Z,6.83
2019-04-16T02:15:50.665Z,7.30
2019-04-16T02:18:29.484Z,7.27
2019-04-16T02:21:02.793Z,5.93
2019-04-16T02:23:37.814Z,6.83
2019-04-16T02:26:13.142Z,6.03
2019-04-16T02:28:48.494Z,6.60
2019-04-16T02:31:23.892Z,6.47
2019-04-16T02:33:58.900Z,6.57
2019-04-16T02:36:34.218Z,6.50
2019-04-16T02:39:09.609Z,5.13
2019-04-16T02:41:44.899Z,6.53
2019-04-16T02:44:19.919Z,6.13
2019-04-16T02:46:54.987Z,5.97
2019-04-16T02:49:30.011Z,6.60
2019-04-16T02:52:06.687Z,5.47
2019-04-16T02:54:48.268Z,6.47
2019-04-16T02:57:31.294Z,6.30
2019-04-16T03:00:08.323Z,5.10
2019-04-16T03:02:45.061Z,6.20
2019-04-16T03:05:26.577Z,5.53
2019-04-16T03:08:04.305Z,7.27
2019-04-16T03:10:41.879Z,6.00
2019-04-16T03:13:16.358Z,6.57
2019-04-16T03:15:53.014Z,6.57
2019-04-16T03:18:32.906Z,5.80
2019-04-16T03:21:07.912Z,5.63
2019-04-16T03:23:43.248Z,6.50
2019-04-16T03:26:18.363Z,5.53
2019-04-16T03:28:55.674Z,5.33
2019-04-16T03:31:30.406Z,6.20
2019-04-16T03:34:05.512Z,6.47
2019-04-16T03:36:40.561Z,6.83
2019-04-16T03:39:16.075Z,6.73
2019-04-16T03:41:56.011Z,6.20
2019-04-16T03:44:27.749Z,7.57
2019-04-16T03:47:04.025Z,6.37
2019-04-16T03:49:39.099Z,7.43
2019-04-16T03:52:14.118Z,6.80
2019-04-16T03:54:53.801Z,6.70
2019-04-16T03:57:26.492Z,6.10
2019-04-16T04:00:01.505Z,7.20
2019-04-16T04:02:36.534Z,7.10
2019-04-16T04:05:11.558Z,7.47
2019-04-16T04:07:46.586Z,7.53
2019-04-16T04:10:30.536Z,7.67
2019-04-16T04:12:58.326Z,7.57
2019-04-16T04:15:33.360Z,7.00
2019-04-16T04:18:11.660Z,7.07
2019-04-16T04:20:49.426Z,6.50
2019-04-16T04:23:21.878Z,7.63
2019-04-16T04:25:56.902Z,7.97
2019-04-16T04:28:31.956Z,7.50
2019-04-16T04:31:06.967Z,7.50
2019-04-16T04:33:43.109Z,7.13
2019-04-16T04:36:19.598Z,7.17
2019-04-16T04:38:55.078Z,7.80
2019-04-16T04:41:30.131Z,7.33
2019-04-16T04:44:05.361Z,7.87
2019-04-16T04:46:45.689Z,7.53
2019-04-16T04:49:17.678Z,7.67
2019-04-16T04:51:52.989Z,6.30
2019-04-16T04:54:28.704Z,7.23
2019-04-16T04:57:08.794Z,6.70
2019-04-16T04:59:45.812Z,6.40
2019-04-16T05:02:21.538Z,5.87
2019-04-16T05:04:58.196Z,6.33
2019-04-16T05:07:33.204Z,6.57
2019-04-16T05:10:08.450Z,6.97
2019-04-16T05:12:44.577Z,6.23
2019-04-16T05:15:19.872Z,6.30
2019-04-16T05:17:55.210Z,7.83
2019-04-16T05:20:30.579Z,7.53
2019-04-16T05:23:06.665Z,6.93
2019-04-16T05:25:41.698Z,9.87
2019-04-16T05:28:16.728Z,8.43
2019-04-16T05:30:52.173Z,8.50
2019-04-16T05:33:28.056Z,7.23
2019-04-16T05:36:03.430Z,6.30
2019-04-16T05:38:38.632Z,9.13
2019-04-16T05:41:17.533Z,7.90
2019-04-16T05:43:50.390Z,7.33
2019-04-16T05:46:25.426Z,7.37
2019-04-16T05:49:01.784Z,7.00
2019-04-16T05:51:37.155Z,6.90
2019-04-16T05:54:28.593Z,7.27
2019-04-16T05:57:09.565Z,5.60
2019-04-16T05:59:45.930Z,7.67
2019-04-16T06:02:22.611Z,6.43
2019-04-16T06:04:59.957Z,5.63
2019-04-16T06:07:37.726Z,6.67
2019-04-16T06:10:17.015Z,5.33
2019-04-16T06:13:03.691Z,6.53
2019-04-16T06:15:50.220Z,8.57
2019-04-16T06:18:45.828Z,7.43
2019-04-16T06:21:42.022Z,6.57
2019-04-16T06:24:20.636Z,6.70
2019-04-16T06:26:57.757Z,7.07
2019-04-16T06:29:35.125Z,6.10
2019-04-16T06:32:30.093Z,7.53
2019-04-16T06:35:11.316Z,6.33
2019-04-16T06:38:05.964Z,7.60
2019-04-16T06:41:03.350Z,7.53
2019-04-16T06:43:40.041Z,7.80
2019-04-16T06:46:39.442Z,6.90
2019-04-16T06:49:17.824Z,7.20
2019-04-16T06:52:15.831Z,9.70
2019-04-16T06:55:07.899Z,7.20
2019-04-16T06:57:44.578Z,6.20
2019-04-16T07:00:39.629Z,8.23
2019-04-16T07:03:32.364Z,7.57
2019-04-16T07:06:26.174Z,5.73
2019-04-16T07:09:03.864Z,6.60
2019-04-16T07:11:53.641Z,5.83
2019-04-16T07:14:20.500Z,7.27
2019-04-16T07:16:59.913Z,7.93
2019-04-16T07:19:33.391Z,7.77
2019-04-16T07:22:08.433Z,8.93
2019-04-16T07:24:43.724Z,7.73
2019-04-16T07:27:20.199Z,7.73
2019-04-16T07:29:57.645Z,8.27
2019-04-16T07:32:51.363Z,9.27
2019-04-16T07:35:34.489Z,8.57
2019-04-16T07:38:18.600Z,8.23
2019-04-16T07:41:01.660Z,8.63
2019-04-16T07:43:56.602Z,8.70
2019-04-16T07:46:50.694Z,8.83
2019-04-16T07:49:27.406Z,9.33
2019-04-16T07:52:11.928Z,8.00
2019-04-16T07:54:54.330Z,8.17
2019-04-16T07:57:29.841Z,10.63
2019-04-16T08:00:09.592Z,8.60
2019-04-16T08:02:46.113Z,8.03
2019-04-16T08:05:22.437Z,7.50
2019-04-16T08:08:57.070Z,9.23
2019-04-16T08:11:36.395Z,8.33
2019-04-16T08:14:14.537Z,8.15
2019-04-16T08:16:49.136Z,8.97
2019-04-16T08:19:36.255Z,8.27
2019-04-16T08:22:01.772Z,7.47
2019-04-16T08:24:40.664Z,7.33
2019-04-16T08:27:19.086Z,7.80
2019-04-16T08:29:53.005Z,7.27
2019-04-16T08:32:28.486Z,7.67
2019-04-16T08:35:10.430Z,8.00
2019-04-16T08:37:49.372Z,7.07
2019-04-16T08:40:23.459Z,7.93
2019-04-16T08:43:00.521Z,7.47
2019-04-16T08:45:39.187Z,6.50
2019-04-16T08:48:16.900Z,6.67
2019-04-16T08:50:51.285Z,7.73
2019-04-16T08:53:27.256Z,6.80
2019-04-16T08:56:02.609Z,6.77
2019-04-16T08:58:38.390Z,6.33
2019-04-16T09:01:18.405Z,6.73
2019-04-16T09:03:54.977Z,6.75
2019-04-16T09:06:30.711Z,6.23
2019-04-16T09:09:26.143Z,4.97
2019-04-16T09:12:07.993Z,6.22
2019-04-16T09:14:42.558Z,5.90
2019-04-16T09:17:19.279Z,5.30
2019-04-16T09:20:13.742Z,6.23
2019-04-16T09:22:54.687Z,6.00
2019-04-16T09:25:50.283Z,6.17
2019-04-16T09:28:44.395Z,6.80
2019-04-16T09:31:39.589Z,6.33
2019-04-16T09:34:19.883Z,7.13
2019-04-16T09:37:04.357Z,7.67
2019-04-16T09:39:58.831Z,7.50
2019-04-16T09:42:38.145Z,6.90
2019-04-16T09:45:15.913Z,6.70
2019-04-16T09:47:51.900Z,7.30
2019-04-16T09:50:26.958Z,7.20
2019-04-16T09:53:06.082Z,6.10
2019-04-16T09:55:41.610Z,7.20
2019-04-16T09:58:21.703Z,6.47
2019-04-16T10:01:11.359Z,6.77
2019-04-16T10:03:48.334Z,7.37
2019-04-16T10:06:25.327Z,6.70
2019-04-16T10:09:00.710Z,6.87
2019-04-16T10:11:37.367Z,6.70
2019-04-16T10:14:19.640Z,7.23
2019-04-16T10:16:54.866Z,6.70
2019-04-16T10:19:32.472Z,5.67
2019-04-16T10:22:07.523Z,7.70
2019-04-16T10:25:01.738Z,7.10
2019-04-16T10:27:38.692Z,6.40
2019-04-16T10:30:16.011Z,6.47
2019-04-16T10:32:51.536Z,7.20
2019-04-16T10:35:27.833Z,6.70
2019-04-16T10:38:04.512Z,6.97
2019-04-16T10:40:41.527Z,6.90
2019-04-16T10:43:44.505Z,6.40
2019-04-16T10:46:17.710Z,5.87
2019-04-16T10:48:54.647Z,6.30
2019-04-16T10:51:33.457Z,6.28
2019-04-16T10:54:11.220Z,6.47
2019-04-16T10:57:10.357Z,6.97
2019-04-16T10:59:50.639Z,6.80
2019-04-16T11:02:34.823Z,6.40
2019-04-16T11:08:19.957Z,7.40
2019-04-16T11:11:04.393Z,6.80
2019-04-16T11:13:43.096Z,8.23
2019-04-16T11:16:24.006Z,7.50
2019-04-16T11:19:08.294Z,6.75
2019-04-16T11:21:50.290Z,7.93
2019-04-16T11:24:33.030Z,6.22
2019-04-16T11:27:11.416Z,7.50
2019-04-16T11:29:53.830Z,6.97
2019-04-16T11:32:40.227Z,7.37
2019-04-16T11:35:25.045Z,6.95
2019-04-16T11:38:03.051Z,8.17
2019-04-16T11:40:42.333Z,7.67
2019-04-16T11:43:20.371Z,7.40
2019-04-16T11:45:57.253Z,6.70
2019-04-16T11:48:37.473Z,7.30
2019-04-16T11:51:14.490Z,5.87
2019-04-16T11:53:52.442Z,6.57
2019-04-16T11:56:33.065Z,6.60
2019-04-16T11:59:24.747Z,7.53
2019-04-16T12:02:04.870Z,6.50
2019-04-16T12:05:01.974Z,7.23
2019-04-16T12:07:51.226Z,6.63
2019-04-16T12:10:42.158Z,7.50
2019-04-16T12:13:39.454Z,7.00
2019-04-16T12:16:29.084Z,7.83
2019-04-16T12:19:16.688Z,6.93
2019-04-16T12:22:11.959Z,6.70
2019-04-16T12:25:09.819Z,7.03
2019-04-16T12:28:01.909Z,6.27
2019-04-16T12:34:22.885Z,8.40
2019-04-16T12:51:05.041Z,7.00
2019-04-16T12:53:53.166Z,6.33
2019-04-16T12:56:45.337Z,5.87
2019-04-16T12:59:30.905Z,6.37
2019-04-16T13:02:44.801Z,8.60
2019-04-16T13:09:19.110Z,13.50
2019-04-16T13:15:54.169Z,6.80
2019-04-16T13:25:24.945Z,6.65
2019-04-16T13:28:08.503Z,6.97
2019-04-16T13:31:08.138Z,7.93
2019-04-16T13:33:52.458Z,9.60
2019-04-16T13:39:59.613Z,7.80
2019-04-16T13:42:34.922Z,9.20
2019-04-16T13:45:26.982Z,15.83
2019-04-16T13:48:15.458Z,18.17
2019-04-16T13:50:45.051Z,8.00
2019-04-16T13:53:31.660Z,21.00
2019-04-16T13:56:21.323Z,49.63
2019-04-16T13:59:03.276Z,7.90
2019-04-16T14:01:59.855Z,111.47
2019-04-16T14:04:37.163Z,13.28
2019-04-16T14:07:19.166Z,103.60
2019-04-16T14:09:54.664Z,21.63
2019-04-16T14:12:41.818Z,12.07
2019-04-16T14:15:11.291Z,9.43
2019-04-16T14:17:52.846Z,37.07
2019-04-16T14:20:24.158Z,36.83
2019-04-16T14:23:00.612Z,28.85
2019-04-16T14:25:36.806Z,30.75
2019-04-16T14:28:13.342Z,50.43
2019-04-16T14:30:49.636Z,14.47
2019-04-16T14:33:27.133Z,24.47
2019-04-16T14:36:02.944Z,27.83
2019-04-16T14:38:42.645Z,19.30
2019-04-16T14:41:18.330Z,32.65
2019-04-16T14:43:58.802Z,19.20
2019-04-16T14:46:39.859Z,17.17
2019-04-16T14:49:15.256Z,78.70
2019-04-16T14:51:58.018Z,29.70
2019-04-16T14:54:44.890Z,17.13
2019-04-16T14:57:23.906Z,24.02
2019-04-16T15:00:20.031Z,10.87
2019-04-16T15:02:59.409Z,12.28
2019-04-16T15:05:37.344Z,29.23
2019-04-16T15:08:18.694Z,211.00
2019-04-16T15:11:16.347Z,188.83
2019-04-16T15:13:58.145Z,356.50
2019-04-16T15:16:50.947Z,198.30
2019-04-16T15:19:29.078Z,435.07
2019-04-16T15:22:39.136Z,280.80
2019-04-16T15:25:25.435Z,150.07
2019-04-16T15:32:05.424Z,99.70
2019-04-16T15:34:50.167Z,328.60
2019-04-16T15:37:29.857Z,207.97
2019-04-16T15:40:08.575Z,310.77
2019-04-16T15:43:09.123Z,88.93
2019-04-16T15:46:07.769Z,212.67
2019-04-16T15:49:01.373Z,200.87
2019-04-16T15:51:53.220Z,134.73
2019-04-16T15:54:34.820Z,195.37
2019-04-16T15:57:34.608Z,57.97
2019-04-16T16:00:19.456Z,36.58
2019-04-16T16:03:22.452Z,120.60
2019-04-16T16:06:07.203Z,583.40
2019-04-16T16:08:47.636Z,169.27
2019-04-16T16:11:26.319Z,107.03
2019-04-16T16:14:08.321Z,30.43
2019-04-16T16:16:47.746Z,73.62
2019-04-16T16:19:22.884Z,435.80
2019-04-16T16:22:01.162Z,81.37
2019-04-16T16:24:42.011Z,338.07
2019-04-16T16:27:15.278Z,129.23
2019-04-16T16:29:51.564Z,7.50
2019-04-16T16:32:29.407Z,34.88
2019-04-16T16:35:08.012Z,33.77
2019-04-16T16:37:46.977Z,55.83
2019-04-16T16:40:23.193Z,19.03
2019-04-16T16:43:06.806Z,15.43
2019-04-16T16:46:05.650Z,10.33
2019-04-16T16:48:41.904Z,11.97
2019-04-16T16:51:23.161Z,12.13
2019-04-16T16:54:09.420Z,13.30
2019-04-16T16:57:08.423Z,9.60
2019-04-16T17:00:02.233Z,21.20
2019-04-16T17:02:50.013Z,11.90
2019-04-16T17:05:30.359Z,16.20
2019-04-16T17:08:07.149Z,12.00
2019-04-16T17:10:42.765Z,19.03
2019-04-16T17:13:21.008Z,12.67
2019-04-16T17:15:56.155Z,11.97
2019-04-16T17:18:31.346Z,9.63
2019-04-16T17:21:07.452Z,13.00
2019-04-16T17:23:48.447Z,10.87
2019-04-16T17:26:26.638Z,13.40
2019-04-16T17:29:01.708Z,20.33
2019-04-16T17:31:36.869Z,16.40
2019-04-16T17:34:12.930Z,10.20
2019-04-16T17:36:49.256Z,12.37
2019-04-16T17:39:32.650Z,9.43
2019-04-16T17:42:09.429Z,10.00
2019-04-16T17:45:03.377Z,9.80
2019-04-16T17:47:58.739Z,15.63
2019-04-16T17:50:51.238Z,10.67
2019-04-16T17:53:27.596Z,11.07
2019-04-16T17:56:22.188Z,11.00
2019-04-16T17:59:02.218Z,8.50
2019-04-16T18:01:52.180Z,9.33
2019-04-16T18:04:37.695Z,8.63
2019-04-16T18:07:33.995Z,11.20
2019-04-16T18:10:10.873Z,10.03
2019-04-16T18:13:06.845Z,9.60
2019-04-16T18:15:53.010Z,9.83
2019-04-16T18:18:48.680Z,9.00
2019-04-16T18:21:28.683Z,9.00
2019-04-16T18:24:14.394Z,9.40
2019-04-16T18:26:53.160Z,9.67
2019-04-16T18:29:32.674Z,8.37
2019-04-16T18:32:21.393Z,8.20
2019-04-16T18:35:16.432Z,8.27
2019-04-16T18:38:08.281Z,11.83
2019-04-16T18:40:46.087Z,20.50
2019-04-16T18:43:32.235Z,9.13
2019-04-16T18:46:22.542Z,9.10
2019-04-16T18:48:59.744Z,10.40
2019-04-16T18:51:35.132Z,7.90
2019-04-16T18:54:10.740Z,7.13
2019-04-16T18:56:46.952Z,8.27
2019-04-16T18:59:23.018Z,7.87
2019-04-16T19:02:08.289Z,19.23
2019-04-16T19:04:43.482Z,7.90
2019-04-16T19:07:20.654Z,11.13
2019-04-16T19:09:56.657Z,8.00
2019-04-16T19:12:32.429Z,7.67
2019-04-16T19:15:07.841Z,7.70
2019-04-16T19:17:43.647Z,7.63
2019-04-16T19:20:18.930Z,7.87
2019-04-16T19:22:55.335Z,8.37
2019-04-16T19:25:31.616Z,7.63
2019-04-16T19:28:07.063Z,8.13
2019-04-16T19:30:42.809Z,6.90
2019-04-16T19:33:20.568Z,8.43
2019-04-16T19:35:56.379Z,7.60
2019-04-16T19:38:32.071Z,7.67
2019-04-16T19:41:07.757Z,8.37
2019-04-16T19:43:43.548Z,7.73
2019-04-16T19:46:19.350Z,7.10
2019-04-16T19:48:56.694Z,7.20
2019-04-16T19:51:38.064Z,7.70
2019-04-16T19:54:16.295Z,7.23
2019-04-16T19:56:53.087Z,7.77
2019-04-16T19:59:30.303Z,8.67
2019-04-16T20:02:08.537Z,7.13
2019-04-16T20:04:46.334Z,7.43
2019-04-16T20:07:21.831Z,7.43
2019-04-16T20:09:57.358Z,8.37
2019-04-16T20:12:33.940Z,7.30
2019-04-16T20:15:09.915Z,9.83
2019-04-16T20:17:45.867Z,8.90
2019-04-16T20:20:21.903Z,8.37
2019-04-16T20:22:58.364Z,8.30
2019-04-16T20:25:34.012Z,8.60
2019-04-16T20:28:26.372Z,8.67
2019-04-16T20:31:08.014Z,7.70
2019-04-16T20:33:48.168Z,9.57
2019-04-16T20:36:29.694Z,7.77
2019-04-16T20:39:10.825Z,8.40
2019-04-16T20:41:52.702Z,8.53
2019-04-16T20:44:30.966Z,9.07
2019-04-16T20:47:17.415Z,9.33
2019-04-16T20:49:57.086Z,8.13
2019-04-16T20:52:34.247Z,8.03
2019-04-16T20:55:15.669Z,9.37
2019-04-16T20:57:49.060Z,9.17
2019-04-16T21:00:35.360Z,10.37
2019-04-16T21:03:22.319Z,9.23
2019-04-16T21:05:59.244Z,8.87
2019-04-16T21:08:33.975Z,9.37
2019-04-16T21:11:09.973Z,8.97
2019-04-16T21:13:46.885Z,9.50
2019-04-16T21:16:23.019Z,12.73
2019-04-16T21:18:58.182Z,14.17
2019-04-16T21:21:37.823Z,8.37
2019-04-16T21:24:13.696Z,7.33
2019-04-16T21:26:54.080Z,7.93
2019-04-16T21:29:34.435Z,7.63
2019-04-16T21:32:16.657Z,7.43
2019-04-16T21:34:51.840Z,7.30
2019-04-16T21:37:48.251Z,8.47
2019-04-16T21:40:25.880Z,7.40
2019-04-16T21:43:06.320Z,8.37
2019-04-16T21:45:40.830Z,8.90
2019-04-16T21:48:16.695Z,7.33
2019-04-16T21:50:56.271Z,7.43
2019-04-16T21:53:33.800Z,7.00
2019-04-16T21:56:15.548Z,8.47
2019-04-16T21:58:54.666Z,6.83
2019-04-16T22:01:38.364Z,7.30
2019-04-16T22:04:16.411Z,7.90
2019-04-16T22:06:53.415Z,8.40
2019-04-16T22:09:29.642Z,8.33
2019-04-16T22:12:07.416Z,7.37
2019-04-16T22:14:43.799Z,7.80
2019-04-16T22:17:21.582Z,7.50
2019-04-16T22:20:03.726Z,8.47
2019-04-16T22:22:39.540Z,7.23
2019-04-16T22:25:15.588Z,7.53
2019-04-16T22:27:51.971Z,7.87
2019-04-16T22:30:28.406Z,7.27
2019-04-16T22:33:06.446Z,8.90
2019-04-16T22:35:42.662Z,8.13
2019-04-16T22:38:18.241Z,7.33
2019-04-16T22:40:56.141Z,7.03
2019-04-16T22:43:49.660Z,6.77
2019-04-16T22:46:27.089Z,8.00
2019-04-16T22:49:03.011Z,7.97
2019-04-16T22:51:43.234Z,7.53
2019-04-16T22:54:20.757Z,7.97
2019-04-16T22:57:01.971Z,8.70
2019-04-16T22:59:39.404Z,7.97
2019-04-16T23:02:22.104Z,7.17
2019-04-16T23:05:00.057Z,7.43
2019-04-16T23:07:36.554Z,7.53
2019-04-16T23:10:12.062Z,8.40
2019-04-16T23:12:47.914Z,7.37
2019-04-16T23:15:23.538Z,7.73
2019-04-16T23:17:59.001Z,7.37
2019-04-16T23:20:36.942Z,7.17
2019-04-16T23:23:12.114Z,7.30
2019-04-16T23:25:47.330Z,8.07
2019-04-16T23:28:22.654Z,9.70
2019-04-16T23:30:58.068Z,7.40
2019-04-16T23:33:33.585Z,8.30
2019-04-16T23:36:09.131Z,10.50
2019-04-16T23:38:45.166Z,8.40
2019-04-16T23:41:22.632Z,7.40
2019-04-16T23:44:22.724Z,7.70
2019-04-16T23:47:18.467Z,8.40
2019-04-16T23:50:01.373Z,7.80
2019-04-16T23:52:38.345Z,7.93
2019-04-16T23:55:17.790Z,7.60
2019-04-16T23:57:56.704Z,8.27
